Time;durP1;ratioP1;P1;durP2;ratioP2;P2;SDS_P1;SDS_P2;PMS_P1;PMS_P2;Temp;Humidity;BMP_temperature;BMP_pressure;BME280_temperature;BME280_humidity;BME280_pressure;Samples;Min_cycle;Max_cycle;Signal;HPM_P1;HPM_P2
2022/09/08 00:00:51;;;;;;;8.17;7.50;;;;;;;;;;5046405;28;20339;-44
2022/09/08 00:03:18;;;;;;;8.97;8.10;;;;;;;;;;5049555;28;20221;-45
2022/09/08 00:05:47;;;;;;;9.07;8.37;;;;;;;;;;5049473;28;20695;-45
2022/09/08 00:08:13;;;;;;;8.80;8.10;;;;;;;;;;5048319;28;20237;-45
2022/09/08 00:10:39;;;;;;;8.90;8.20;;;;;;;;;;5048231;28;20204;-45
2022/09/08 00:13:07;;;;;;;9.00;8.30;;;;;;;;;;5049511;28;20204;-45
2022/09/08 00:15:34;;;;;;;9.00;8.30;;;;;;;;;;5050875;28;20698;-45
2022/09/08 00:18:01;;;;;;;8.43;7.73;;;;;;;;;;5051721;28;20656;-45
2022/09/08 00:20:28;;;;;;;8.70;8.10;;;;;;;;;;5053159;28;20200;-45
2022/09/08 00:22:54;;;;;;;8.73;8.03;;;;;;;;;;5052487;28;20280;-45
2022/09/08 00:25:20;;;;;;;9.13;8.37;;;;;;;;;;5053255;28;20730;-45
2022/09/08 00:27:46;;;;;;;8.73;8.03;;;;;;;;;;5053022;28;20211;-45
2022/09/08 00:30:13;;;;;;;9.37;8.57;;;;;;;;;;5051632;28;20291;-45
2022/09/08 00:32:39;;;;;;;8.57;7.87;;;;;;;;;;5051924;28;20291;-44
2022/09/08 00:35:14;;;;;;;8.60;7.97;;;;;;;;;;5052710;28;20615;-45
2022/09/08 00:37:40;;;;;;;8.27;7.60;;;;;;;;;;5053208;28;20215;-44
2022/09/08 00:40:06;;;;;;;8.47;7.77;;;;;;;;;;5051414;28;20192;-45
2022/09/08 00:42:32;;;;;;;8.43;7.73;;;;;;;;;;5051189;28;20197;-45
2022/09/08 00:44:58;;;;;;;8.73;8.13;;;;;;;;;;5052969;28;20582;-45
2022/09/08 00:47:26;;;;;;;10.10;9.03;;;;;;;;;;5052257;28;20197;-45
2022/09/08 00:49:56;;;;;;;10.27;9.47;;;;;;;;;;5051402;28;20310;-45
2022/09/08 00:52:24;;;;;;;10.30;9.50;;;;;;;;;;5053203;28;20727;-45
2022/09/08 00:54:50;;;;;;;8.87;8.20;;;;;;;;;;5050510;28;20208;-46
2022/09/08 00:57:16;;;;;;;8.97;8.27;;;;;;;;;;5049574;28;20201;-46
2022/09/08 00:59:43;;;;;;;8.53;7.93;;;;;;;;;;5051036;28;20236;-46
2022/09/08 01:02:23;;;;;;;8.73;8.03;;;;;;;;;;5053149;28;20216;-46
2022/09/08 01:04:50;;;;;;;8.60;7.90;;;;;;;;;;5051912;28;20654;-47
2022/09/08 01:12:56;;;;;;;8.47;7.83;;;;;;;;;;5051097;28;20204;-46
2022/09/08 01:15:23;;;;;;;8.07;7.47;;;;;;;;;;5052692;28;20201;-46
2022/09/08 01:17:51;;;;;;;8.87;8.17;;;;;;;;;;5052261;28;20196;-46
2022/09/08 01:20:18;;;;;;;8.50;7.80;;;;;;;;;;5050627;28;20197;-46
2022/09/08 01:22:55;;;;;;;10.00;9.20;;;;;;;;;;5051925;28;20200;-47
2022/09/08 01:25:31;;;;;;;9.97;9.17;;;;;;;;;;5052216;28;20248;-46
2022/09/08 01:28:03;;;;;;;9.00;8.30;;;;;;;;;;5050813;28;20299;-46
2022/09/08 01:30:29;;;;;;;9.93;9.07;;;;;;;;;;5052115;28;20211;-46
2022/09/08 01:32:55;;;;;;;9.83;9.03;;;;;;;;;;5051901;28;20208;-46
2022/09/08 01:35:29;;;;;;;10.17;9.37;;;;;;;;;;5052121;28;20200;-46
2022/09/08 01:37:55;;;;;;;9.83;9.13;;;;;;;;;;5052075;28;20205;-46
2022/09/08 01:40:21;;;;;;;11.10;10.20;;;;;;;;;;5051976;28;20208;-46
2022/09/08 01:42:47;;;;;;;11.83;10.93;;;;;;;;;;5051964;28;20290;-46
2022/09/08 01:45:14;;;;;;;11.50;10.43;;;;;;;;;;5052006;28;20315;-46
2022/09/08 01:47:40;;;;;;;10.57;9.77;;;;;;;;;;5050902;28;20602;-46
2022/09/08 01:50:09;;;;;;;10.77;9.87;;;;;;;;;;5052093;28;20279;-46
2022/09/08 01:52:35;;;;;;;9.73;8.97;;;;;;;;;;5051417;28;20200;-46
2022/09/08 01:55:01;;;;;;;11.10;10.20;;;;;;;;;;5051875;28;20283;-46
2022/09/08 01:57:27;;;;;;;10.33;9.53;;;;;;;;;;5051607;28;20200;-46
2022/09/08 01:59:53;;;;;;;10.60;9.80;;;;;;;;;;5051563;28;20721;-46
2022/09/08 02:02:21;;;;;;;11.03;10.00;;;;;;;;;;5051745;28;20196;-46
2022/09/08 02:04:47;;;;;;;9.90;9.10;;;;;;;;;;5051734;28;20270;-46
2022/09/08 02:07:13;;;;;;;9.50;8.80;;;;;;;;;;5051426;28;20212;-46
2022/09/08 02:09:39;;;;;;;10.23;9.37;;;;;;;;;;5051519;28;20236;-46
2022/09/08 02:12:05;;;;;;;9.90;9.07;;;;;;;;;;5051444;28;20207;-46
2022/09/08 02:14:31;;;;;;;11.00;10.00;;;;;;;;;;5051319;28;20717;-46
2022/09/08 02:16:57;;;;;;;10.90;10.10;;;;;;;;;;5051414;28;20197;-46
2022/09/08 02:19:24;;;;;;;10.80;9.90;;;;;;;;;;5051336;28;20655;-46
2022/09/08 02:21:50;;;;;;;9.63;8.83;;;;;;;;;;5050685;28;20602;-46
2022/09/08 02:24:16;;;;;;;10.93;10.03;;;;;;;;;;5050974;28;20231;-46
2022/09/08 02:26:42;;;;;;;11.53;10.57;;;;;;;;;;5050998;28;20270;-46
2022/09/08 02:29:09;;;;;;;11.23;10.13;;;;;;;;;;5051042;28;20667;-46
2022/09/08 02:31:36;;;;;;;10.23;9.43;;;;;;;;;;5050735;28;20200;-46
2022/09/08 02:34:02;;;;;;;11.40;10.40;;;;;;;;;;5050312;28;20200;-46
2022/09/08 02:36:29;;;;;;;10.80;9.90;;;;;;;;;;5051077;28;20313;-46
2022/09/08 02:38:55;;;;;;;10.83;10.00;;;;;;;;;;5050070;28;20544;-46
2022/09/08 02:41:22;;;;;;;11.43;10.47;;;;;;;;;;5050965;28;20676;-46
2022/09/08 02:43:47;;;;;;;11.07;10.27;;;;;;;;;;5050977;28;20204;-46
2022/09/08 02:46:14;;;;;;;9.77;8.97;;;;;;;;;;5050676;28;20235;-46
2022/09/08 02:48:40;;;;;;;11.17;10.27;;;;;;;;;;5050836;28;20200;-46
2022/09/08 02:51:08;;;;;;;10.53;9.57;;;;;;;;;;5051010;28;20196;-46
2022/09/08 02:53:36;;;;;;;10.90;10.00;;;;;;;;;;5050876;28;20601;-46
2022/09/08 02:56:02;;;;;;;10.63;9.53;;;;;;;;;;5050782;28;20207;-46
2022/09/08 02:58:28;;;;;;;10.70;9.83;;;;;;;;;;5050567;28;20572;-46
2022/09/08 03:00:54;;;;;;;10.80;10.00;;;;;;;;;;5050580;28;20606;-46
2022/09/08 03:03:22;;;;;;;10.37;9.57;;;;;;;;;;5050705;28;20204;-46
2022/09/08 03:05:48;;;;;;;9.93;9.17;;;;;;;;;;5050528;28;20250;-46
2022/09/08 03:08:14;;;;;;;10.27;9.43;;;;;;;;;;5050402;28;20303;-47
2022/09/08 03:10:42;;;;;;;10.90;9.80;;;;;;;;;;5050191;28;20658;-47
2022/09/08 03:13:08;;;;;;;9.63;8.83;;;;;;;;;;5050639;28;20200;-47
2022/09/08 03:15:35;;;;;;;10.90;10.00;;;;;;;;;;5050354;28;20639;-47
2022/09/08 03:18:04;;;;;;;10.30;9.40;;;;;;;;;;5048738;28;20203;-47
2022/09/08 03:20:30;;;;;;;9.93;9.13;;;;;;;;;;5050356;28;20197;-47
2022/09/08 03:22:56;;;;;;;11.07;9.97;;;;;;;;;;5050456;28;20204;-47
2022/09/08 03:25:22;;;;;;;10.70;9.83;;;;;;;;;;5050383;28;20234;-47
2022/09/08 03:27:49;;;;;;;10.40;9.50;;;;;;;;;;5050422;28;20208;-47
2022/09/08 03:30:16;;;;;;;10.53;9.67;;;;;;;;;;5050217;28;20758;-46
2022/09/08 03:32:42;;;;;;;11.37;10.27;;;;;;;;;;5050335;28;20713;-46
2022/09/08 03:35:09;;;;;;;10.80;9.90;;;;;;;;;;5050113;28;20708;-46
2022/09/08 03:37:35;;;;;;;10.47;9.67;;;;;;;;;;5050582;28;20200;-47
2022/09/08 03:40:03;;;;;;;9.13;8.33;;;;;;;;;;5050786;28;20212;-46
2022/09/08 03:42:33;;;;;;;9.63;8.77;;;;;;;;;;5050489;28;20741;-47
2022/09/08 03:45:01;;;;;;;10.87;9.97;;;;;;;;;;5048082;28;20232;-47
2022/09/08 03:47:27;;;;;;;11.73;10.73;;;;;;;;;;5049770;28;20200;-47
2022/09/08 03:49:53;;;;;;;10.63;9.73;;;;;;;;;;5050627;28;20212;-47
2022/09/08 03:52:19;;;;;;;11.03;10.13;;;;;;;;;;5054133;28;20238;-47
2022/09/08 03:54:48;;;;;;;11.57;10.57;;;;;;;;;;5054184;28;20542;-47
2022/09/08 03:57:14;;;;;;;11.67;10.57;;;;;;;;;;5054138;28;20199;-47
2022/09/08 03:59:42;;;;;;;10.77;9.77;;;;;;;;;;5054001;28;20310;-46
2022/09/08 04:02:10;;;;;;;10.13;9.33;;;;;;;;;;5054081;28;20204;-47
2022/09/08 04:04:36;;;;;;;11.47;10.47;;;;;;;;;;5053729;28;20289;-47
2022/09/08 04:07:03;;;;;;;10.87;9.97;;;;;;;;;;5053614;28;20706;-46
2022/09/08 04:09:29;;;;;;;11.93;11.03;;;;;;;;;;5053781;28;20208;-47
2022/09/08 04:11:55;;;;;;;11.00;10.00;;;;;;;;;;5053860;28;20209;-47
2022/09/08 04:14:21;;;;;;;12.23;11.13;;;;;;;;;;5053782;28;20237;-47
2022/09/08 04:16:47;;;;;;;9.80;9.00;;;;;;;;;;5053501;28;20215;-47
2022/09/08 04:19:15;;;;;;;10.83;9.93;;;;;;;;;;5053904;28;20222;-48
2022/09/08 04:21:41;;;;;;;10.37;9.47;;;;;;;;;;5053328;28;20262;-47
2022/09/08 04:24:07;;;;;;;11.27;10.17;;;;;;;;;;5053867;28;20201;-47
2022/09/08 04:26:33;;;;;;;11.33;10.33;;;;;;;;;;5053861;28;20750;-47
2022/09/08 04:29:00;;;;;;;10.30;9.50;;;;;;;;;;5053432;28;20203;-48
2022/09/08 04:31:26;;;;;;;10.97;9.97;;;;;;;;;;5053780;28;20204;-47
2022/09/08 04:33:52;;;;;;;10.03;9.03;;;;;;;;;;5053570;28;20671;-47
2022/09/08 04:36:20;;;;;;;11.03;10.03;;;;;;;;;;5053299;28;20196;-47
2022/09/08 04:38:46;;;;;;;11.90;10.70;;;;;;;;;;5053021;28;20243;-47
2022/09/08 04:41:14;;;;;;;11.60;10.60;;;;;;;;;;5053518;28;20200;-47
2022/09/08 04:43:40;;;;;;;11.20;10.10;;;;;;;;;;5053241;28;20650;-47
2022/09/08 04:46:07;;;;;;;11.33;10.33;;;;;;;;;;5053220;28;20231;-47
2022/09/08 04:48:34;;;;;;;13.03;11.63;;;;;;;;;;5052983;28;20185;-46
2022/09/08 04:51:01;;;;;;;12.30;11.23;;;;;;;;;;5053034;28;20280;-47
2022/09/08 04:53:29;;;;;;;12.70;11.60;;;;;;;;;;5053237;28;20200;-47
2022/09/08 04:55:55;;;;;;;12.47;11.40;;;;;;;;;;5052889;28;20258;-47
2022/09/08 04:58:21;;;;;;;11.80;10.70;;;;;;;;;;5052953;28;20773;-47
2022/09/08 05:00:48;;;;;;;11.80;10.60;;;;;;;;;;5052119;28;20247;-46
2022/09/08 05:03:14;;;;;;;13.10;12.00;;;;;;;;;;5048868;28;20667;-47
2022/09/08 05:05:40;;;;;;;12.17;11.27;;;;;;;;;;5051735;28;20443;-47
2022/09/08 05:08:06;;;;;;;13.07;11.97;;;;;;;;;;5052939;28;20414;-46
2022/09/08 05:10:34;;;;;;;12.60;11.60;;;;;;;;;;5052675;28;20223;-47
2022/09/08 05:13:00;;;;;;;11.57;10.60;;;;;;;;;;5052680;28;20209;-47
2022/09/08 05:15:26;;;;;;;12.43;11.33;;;;;;;;;;5052534;28;20197;-47
2022/09/08 05:17:54;;;;;;;11.53;10.63;;;;;;;;;;5052102;28;20219;-46
2022/09/08 05:20:20;;;;;;;12.60;11.50;;;;;;;;;;5052111;28;20207;-47
2022/09/08 05:22:46;;;;;;;10.93;10.03;;;;;;;;;;5051933;28;20204;-46
2022/09/08 05:25:12;;;;;;;11.00;10.00;;;;;;;;;;5052180;28;20315;-47
2022/09/08 05:27:40;;;;;;;13.40;12.23;;;;;;;;;;5052084;28;20288;-47
2022/09/08 05:30:06;;;;;;;12.10;10.90;;;;;;;;;;5052478;28;20418;-47
2022/09/08 05:32:34;;;;;;;11.83;10.83;;;;;;;;;;5052145;28;20200;-47
2022/09/08 05:35:00;;;;;;;12.40;11.20;;;;;;;;;;5052111;28;20185;-47
2022/09/08 05:37:27;;;;;;;14.20;12.80;;;;;;;;;;5050494;28;20235;-48
2022/09/08 05:39:54;;;;;;;13.17;12.07;;;;;;;;;;5051865;28;20200;-47
2022/09/08 05:42:20;;;;;;;15.70;14.40;;;;;;;;;;5052275;28;20197;-47
2022/09/08 05:44:47;;;;;;;15.00;13.70;;;;;;;;;;5051912;28;20283;-47
2022/09/08 05:47:13;;;;;;;16.20;14.57;;;;;;;;;;5051828;28;20208;-47
2022/09/08 05:49:39;;;;;;;14.93;13.63;;;;;;;;;;5051984;28;20201;-47
2022/09/08 05:52:06;;;;;;;16.00;14.57;;;;;;;;;;5051785;28;20228;-47
2022/09/08 05:54:32;;;;;;;14.13;12.80;;;;;;;;;;5052066;28;20212;-47
2022/09/08 05:56:58;;;;;;;14.23;12.93;;;;;;;;;;5051876;28;20196;-46
2022/09/08 05:59:24;;;;;;;16.27;13.73;;;;;;;;;;5051725;28;20240;-47
2022/09/08 06:01:51;;;;;;;14.23;13.03;;;;;;;;;;5051742;28;20203;-47
2022/09/08 06:04:18;;;;;;;14.97;13.57;;;;;;;;;;5051295;28;20192;-47
2022/09/08 06:06:46;;;;;;;16.13;14.57;;;;;;;;;;5051067;28;20209;-47
2022/09/08 06:09:12;;;;;;;15.70;13.10;;;;;;;;;;5051378;28;20206;-47
2022/09/08 06:11:39;;;;;;;14.10;12.90;;;;;;;;;;5051338;28;20205;-47
2022/09/08 06:14:05;;;;;;;15.37;13.90;;;;;;;;;;5051003;28;20288;-46
2022/09/08 06:16:31;;;;;;;13.77;12.57;;;;;;;;;;5049395;28;20193;-47
2022/09/08 06:18:59;;;;;;;14.27;12.97;;;;;;;;;;5049394;28;20652;-46
2022/09/08 06:21:27;;;;;;;13.30;12.10;;;;;;;;;;5051629;28;20565;-47
2022/09/08 06:23:54;;;;;;;12.60;11.50;;;;;;;;;;5051553;28;20615;-46
2022/09/08 06:26:27;;;;;;;13.43;12.33;;;;;;;;;;5049662;28;20274;-47
2022/09/08 06:28:55;;;;;;;14.20;12.80;;;;;;;;;;5051432;28;20299;-47
2022/09/08 06:31:25;;;;;;;13.20;11.90;;;;;;;;;;5050882;28;20615;-47
2022/09/08 06:33:51;;;;;;;13.77;12.43;;;;;;;;;;5050751;28;20205;-47
2022/09/08 06:36:21;;;;;;;12.67;11.47;;;;;;;;;;5050764;28;20243;-47
2022/09/08 06:38:48;;;;;;;12.20;11.10;;;;;;;;;;5050847;28;20679;-47
2022/09/08 06:41:15;;;;;;;12.93;11.83;;;;;;;;;;5050863;28;20625;-47
2022/09/08 06:43:43;;;;;;;14.13;12.83;;;;;;;;;;5050845;28;20203;-47
2022/09/08 06:46:19;;;;;;;13.20;11.93;;;;;;;;;;5051069;28;20247;-47
2022/09/08 06:48:45;;;;;;;14.07;12.77;;;;;;;;;;5051107;28;20208;-47
2022/09/08 06:51:14;;;;;;;13.23;12.03;;;;;;;;;;5050546;28;20193;-47
2022/09/08 06:53:43;;;;;;;12.57;11.43;;;;;;;;;;5050624;28;20275;-46
2022/09/08 06:56:17;;;;;;;14.07;13.00;;;;;;;;;;5050975;28;20195;-47
2022/09/08 06:58:44;;;;;;;15.43;12.67;;;;;;;;;;5050933;28;20197;-46
2022/09/08 07:01:13;;;;;;;14.83;11.70;;;;;;;;;;5048916;28;20621;-47
2022/09/08 07:03:46;;;;;;;12.93;11.90;;;;;;;;;;5050825;28;20208;-47
2022/09/08 07:06:16;;;;;;;13.53;12.33;;;;;;;;;;5050642;28;20692;-47
2022/09/08 07:08:47;;;;;;;14.53;13.23;;;;;;;;;;5047020;28;20237;-47
2022/09/08 07:11:17;;;;;;;13.17;12.00;;;;;;;;;;5050549;28;20674;-46
2022/09/08 07:13:47;;;;;;;13.17;11.97;;;;;;;;;;5050276;28;20225;-47
2022/09/08 07:16:15;;;;;;;12.90;11.73;;;;;;;;;;5050290;28;20213;-46
2022/09/08 07:18:45;;;;;;;12.10;10.83;;;;;;;;;;5049764;28;20280;-46
2022/09/08 07:21:15;;;;;;;15.00;13.60;;;;;;;;;;5050082;28;20198;-47
2022/09/08 07:23:42;;;;;;;14.40;13.00;;;;;;;;;;5050350;28;20429;-47
2022/09/08 07:26:12;;;;;;;13.90;12.50;;;;;;;;;;5049812;28;20224;-46
2022/09/08 07:28:40;;;;;;;13.63;12.33;;;;;;;;;;5050319;28;20200;-46
2022/09/08 07:31:16;;;;;;;14.50;13.03;;;;;;;;;;5050252;28;20209;-46
2022/09/08 07:33:43;;;;;;;11.77;10.77;;;;;;;;;;5050023;28;20285;-46
2022/09/08 07:36:12;;;;;;;13.03;11.87;;;;;;;;;;5050483;28;20209;-45
2022/09/08 07:38:42;;;;;;;12.40;11.30;;;;;;;;;;5049794;28;20204;-46
2022/09/08 07:41:12;;;;;;;12.87;11.77;;;;;;;;;;5050203;28;20748;-64
2022/09/08 07:43:38;;;;;;;12.33;11.10;;;;;;;;;;5048989;28;20708;-63
2022/09/08 07:46:16;;;;;;;11.73;10.73;;;;;;;;;;5049889;28;20237;-63
2022/09/08 07:48:47;;;;;;;12.70;11.50;;;;;;;;;;5049962;28;20212;-63
2022/09/08 07:51:14;;;;;;;12.63;11.53;;;;;;;;;;5050015;28;20201;-64
2022/09/08 07:53:45;;;;;;;11.00;10.00;;;;;;;;;;5050019;28;20645;-64
2022/09/08 07:56:15;;;;;;;11.10;10.20;;;;;;;;;;5048378;28;20230;-63
2022/09/08 07:58:45;;;;;;;11.73;10.60;;;;;;;;;;5049192;28;20225;-61
2022/09/08 08:01:16;;;;;;;12.57;11.37;;;;;;;;;;5050148;28;20209;-62
2022/09/08 08:03:47;;;;;;;12.77;11.57;;;;;;;;;;5049804;28;20202;-63
2022/09/08 08:06:20;;;;;;;11.97;10.70;;;;;;;;;;5049711;28;20639;-62
2022/09/08 08:08:51;;;;;;;11.33;10.43;;;;;;;;;;5049610;28;20308;-62
2022/09/08 08:11:22;;;;;;;14.63;13.33;;;;;;;;;;5049956;28;20290;-62
2022/09/08 08:13:54;;;;;;;13.90;12.60;;;;;;;;;;5050114;28;20198;-62
2022/09/08 08:16:22;;;;;;;15.40;14.07;;;;;;;;;;5049438;28;20198;-60
2022/09/08 08:18:52;;;;;;;13.70;12.60;;;;;;;;;;5047801;28;20642;-60
2022/09/08 08:21:23;;;;;;;14.27;13.07;;;;;;;;;;5050110;28;20201;-58
2022/09/08 08:23:57;;;;;;;17.30;15.70;;;;;;;;;;5049816;28;20286;-59
2022/09/08 08:26:29;;;;;;;18.10;16.07;;;;;;;;;;5049759;28;20228;-59
2022/09/08 08:29:00;;;;;;;19.07;17.07;;;;;;;;;;5050048;28;20744;-59
2022/09/08 08:31:33;;;;;;;18.57;16.97;;;;;;;;;;5049701;28;20285;-59
2022/09/08 08:34:03;;;;;;;18.93;17.13;;;;;;;;;;5049729;28;20400;-60
2022/09/08 08:36:30;;;;;;;19.67;18.00;;;;;;;;;;5049709;28;20216;-48
2022/09/08 08:39:01;;;;;;;19.47;17.83;;;;;;;;;;5058941;28;20200;-47
2022/09/08 08:41:31;;;;;;;19.53;17.77;;;;;;;;;;5073216;28;20201;-47
2022/09/08 08:44:03;;;;;;;19.40;17.70;;;;;;;;;;5073073;28;20251;-48
2022/09/08 08:46:39;;;;;;;17.70;16.20;;;;;;;;;;5073096;28;20215;-47
2022/09/08 08:49:13;;;;;;;19.30;17.50;;;;;;;;;;5072643;28;20207;-48
2022/09/08 08:51:55;;;;;;;19.47;17.77;;;;;;;;;;5069138;28;20243;-48
2022/09/08 08:54:28;;;;;;;18.77;17.13;;;;;;;;;;5072748;28;20200;-45
2022/09/08 08:56:59;;;;;;;19.27;17.57;;;;;;;;;;5072996;28;20204;-45
2022/09/08 08:59:52;;;;;;;20.13;18.03;;;;;;;;;;5073027;28;20230;-45
2022/09/08 09:02:27;;;;;;;23.67;21.67;;;;;;;;;;5072809;28;20618;-45
2022/09/08 09:05:12;;;;;;;22.77;20.77;;;;;;;;;;5072299;28;20276;-45
2022/09/08 09:07:53;;;;;;;25.50;23.20;;;;;;;;;;5072239;28;20217;-45
2022/09/08 09:10:36;;;;;;;27.70;25.07;;;;;;;;;;5072590;28;20610;-45
2022/09/08 09:13:11;;;;;;;27.53;25.03;;;;;;;;;;5072340;28;20286;-45
2022/09/08 09:15:44;;;;;;;27.33;24.77;;;;;;;;;;5072688;28;20238;-44
2022/09/08 09:18:24;;;;;;;26.90;24.30;;;;;;;;;;5072142;28;20261;-45
2022/09/08 09:20:57;;;;;;;26.60;24.17;;;;;;;;;;5072262;28;20192;-45
2022/09/08 09:23:34;;;;;;;28.20;25.50;;;;;;;;;;5072654;28;20196;-45
2022/09/08 09:26:01;;;;;;;26.57;24.10;;;;;;;;;;5071910;28;20230;-45
2022/09/08 09:28:42;;;;;;;27.50;24.77;;;;;;;;;;5072470;28;20697;-45
2022/09/08 09:31:20;;;;;;;25.10;22.80;;;;;;;;;;5055040;28;20223;-45
2022/09/08 09:33:59;;;;;;;23.93;21.83;;;;;;;;;;5072202;28;20208;-46
2022/09/08 09:36:40;;;;;;;24.13;21.80;;;;;;;;;;5072153;28;20624;-45
2022/09/08 09:39:36;;;;;;;21.90;19.80;;;;;;;;;;5072267;28;20195;-45
2022/09/08 09:42:29;;;;;;;22.67;20.67;;;;;;;;;;5010016;28;20214;-45
2022/09/08 09:45:05;;;;;;;21.77;19.77;;;;;;;;;;5068368;28;20609;-45
2022/09/08 09:47:42;;;;;;;19.77;17.87;;;;;;;;;;5071447;28;20192;-45
2022/09/08 09:50:27;;;;;;;20.43;18.63;;;;;;;;;;5072048;28;20200;-46
2022/09/08 09:52:57;;;;;;;20.80;18.83;;;;;;;;;;5070284;28;20666;-45
2022/09/08 09:55:35;;;;;;;19.27;17.37;;;;;;;;;;5072067;28;20193;-46
2022/09/08 09:58:19;;;;;;;19.00;17.30;;;;;;;;;;5071638;28;20208;-46
2022/09/08 10:00:56;;;;;;;18.47;16.87;;;;;;;;;;5061181;28;20276;-45
2022/09/08 10:03:49;;;;;;;18.97;17.10;;;;;;;;;;5071458;28;20196;-45
2022/09/08 10:06:23;;;;;;;17.10;15.50;;;;;;;;;;5071344;28;20232;-46
2022/09/08 10:09:01;;;;;;;16.97;15.27;;;;;;;;;;5071477;28;20258;-46
2022/09/08 10:11:38;;;;;;;18.47;16.83;;;;;;;;;;5071661;28;20209;-45
2022/09/08 10:14:19;;;;;;;16.10;14.70;;;;;;;;;;5071669;28;20218;-47
2022/09/08 10:16:56;;;;;;;17.33;15.70;;;;;;;;;;5071053;28;20271;-46
2022/09/08 10:19:40;;;;;;;16.07;14.40;;;;;;;;;;5071656;28;20258;-46
2022/09/08 10:22:24;;;;;;;14.17;12.97;;;;;;;;;;5071519;28;20197;-46
2022/09/08 10:25:07;;;;;;;13.73;12.43;;;;;;;;;;5071095;28;20205;-46
2022/09/08 10:27:45;;;;;;;16.20;14.63;;;;;;;;;;5071129;28;20689;-46
2022/09/08 10:30:15;;;;;;;15.63;14.20;;;;;;;;;;5070797;28;20729;-47
2022/09/08 10:33:08;;;;;;;15.70;14.10;;;;;;;;;;5070709;28;20204;-47
2022/09/08 10:35:38;;;;;;;13.23;12.17;;;;;;;;;;5033298;28;20220;-46
2022/09/08 10:38:19;;;;;;;13.70;12.40;;;;;;;;;;5069001;28;20283;-47
2022/09/08 10:40:53;;;;;;;13.87;12.57;;;;;;;;;;5071113;28;20576;-49
2022/09/08 10:43:31;;;;;;;13.77;12.60;;;;;;;;;;5070347;28;20212;-48
2022/09/08 10:46:12;;;;;;;12.10;10.90;;;;;;;;;;5070346;28;20594;-47
2022/09/08 10:48:56;;;;;;;11.10;10.10;;;;;;;;;;5068014;28;20204;-46
2022/09/08 10:51:38;;;;;;;12.37;11.23;;;;;;;;;;5070843;28;20212;-46
2022/09/08 10:54:21;;;;;;;9.43;8.63;;;;;;;;;;5070714;28;20265;-46
2022/09/08 10:56:49;;;;;;;11.53;10.33;;;;;;;;;;5070763;28;20259;-46
2022/09/08 10:59:29;;;;;;;11.63;10.57;;;;;;;;;;5070257;28;20230;-47
2022/09/08 11:02:13;;;;;;;11.83;10.73;;;;;;;;;;5070470;28;20663;-46
2022/09/08 11:04:52;;;;;;;10.77;9.87;;;;;;;;;;5070289;28;20236;-46
2022/09/08 11:07:32;;;;;;;10.40;9.50;;;;;;;;;;5070441;28;20613;-47
2022/09/08 11:10:06;;;;;;;9.70;8.90;;;;;;;;;;5070714;28;20196;-46
2022/09/08 11:12:39;;;;;;;10.33;9.53;;;;;;;;;;5070403;28;20601;-46
2022/09/08 11:15:18;;;;;;;11.27;10.33;;;;;;;;;;5070783;28;20239;-47
2022/09/08 11:17:46;;;;;;;10.17;9.27;;;;;;;;;;5070496;28;20197;-46
2022/09/08 11:20:17;;;;;;;10.60;9.70;;;;;;;;;;5070322;28;20213;-47
2022/09/08 11:22:54;;;;;;;10.20;9.37;;;;;;;;;;5070621;28;20206;-46
2022/09/08 11:25:41;;;;;;;8.87;8.07;;;;;;;;;;5070074;28;20320;-46
2022/09/08 11:28:19;;;;;;;8.23;7.53;;;;;;;;;;5044421;28;20688;-46
2022/09/08 11:30:50;;;;;;;8.93;8.20;;;;;;;;;;5070028;28;20210;-47
2022/09/08 11:33:21;;;;;;;8.20;7.37;;;;;;;;;;5070373;28;20197;-47
2022/09/08 11:35:58;;;;;;;8.00;7.30;;;;;;;;;;5070056;28;20204;-47
2022/09/08 11:38:43;;;;;;;7.97;7.33;;;;;;;;;;5069822;28;20431;-46
2022/09/08 11:41:33;;;;;;;7.03;6.50;;;;;;;;;;5070107;28;20713;-47
2022/09/08 11:44:11;;;;;;;8.07;7.37;;;;;;;;;;5070261;28;20206;-47
2022/09/08 11:46:42;;;;;;;8.00;7.40;;;;;;;;;;5070051;28;20233;-47
2022/09/08 11:49:16;;;;;;;8.07;7.40;;;;;;;;;;5070305;28;20199;-45
2022/09/08 11:51:51;;;;;;;6.97;6.33;;;;;;;;;;5070010;28;20328;-47
2022/09/08 11:54:25;;;;;;;7.00;6.50;;;;;;;;;;5070348;28;20674;-46
2022/09/08 11:57:03;;;;;;;7.60;6.90;;;;;;;;;;5070208;28;20206;-47
2022/09/08 11:59:39;;;;;;;6.63;6.13;;;;;;;;;;5070091;28;20257;-45
2022/09/08 12:02:16;;;;;;;7.50;6.90;;;;;;;;;;5069958;28;20211;-47
2022/09/08 12:04:50;;;;;;;7.63;7.00;;;;;;;;;;5069768;28;20197;-47
2022/09/08 12:07:34;;;;;;;6.80;6.20;;;;;;;;;;5070106;28;20227;-47
2022/09/08 12:10:11;;;;;;;7.77;7.03;;;;;;;;;;5069240;28;20308;-47
2022/09/08 12:12:55;;;;;;;7.90;7.30;;;;;;;;;;5073381;28;20677;-47
2022/09/08 12:15:28;;;;;;;8.20;7.43;;;;;;;;;;5063133;28;20567;-47
2022/09/08 12:18:00;;;;;;;8.67;7.87;;;;;;;;;;5073981;28;20300;-47
2022/09/08 12:20:32;;;;;;;7.87;7.20;;;;;;;;;;5073621;28;20202;-47
2022/09/08 12:23:11;;;;;;;6.57;6.07;;;;;;;;;;5070404;28;20237;-47
2022/09/08 12:25:47;;;;;;;6.90;6.30;;;;;;;;;;5071782;28;20235;-47
2022/09/08 12:28:22;;;;;;;6.60;5.87;;;;;;;;;;5073502;28;20230;-51
2022/09/08 12:31:00;;;;;;;6.87;6.37;;;;;;;;;;5073444;28;20229;-48
2022/09/08 12:33:36;;;;;;;7.00;6.33;;;;;;;;;;5073564;28;20542;-47
2022/09/08 12:36:06;;;;;;;7.63;6.90;;;;;;;;;;5073679;28;20336;-46
2022/09/08 12:38:38;;;;;;;6.27;5.70;;;;;;;;;;5073133;28;20212;-46
2022/09/08 12:41:22;;;;;;;7.37;6.77;;;;;;;;;;5073049;28;20204;-44
2022/09/08 12:43:48;;;;;;;7.47;5.90;;;;;;;;;;5073156;28;20227;-48
2022/09/08 12:46:32;;;;;;;5.83;5.40;;;;;;;;;;5073158;28;20299;-45
2022/09/08 12:49:13;;;;;;;5.50;5.07;;;;;;;;;;5072713;28;20206;-46
2022/09/08 12:51:39;;;;;;;6.37;5.87;;;;;;;;;;5072976;28;20205;-46
2022/09/08 12:54:14;;;;;;;6.47;5.87;;;;;;;;;;5073023;28;20205;-46
2022/09/08 12:56:46;;;;;;;6.47;5.97;;;;;;;;;;5072864;28;20201;-47
2022/09/08 12:59:19;;;;;;;5.40;4.90;;;;;;;;;;5072591;28;20234;-47
2022/09/08 13:01:47;;;;;;;6.00;5.50;;;;;;;;;;5073162;28;20202;-47
2022/09/08 13:04:24;;;;;;;5.50;5.00;;;;;;;;;;5072831;28;20206;-46
2022/09/08 13:06:58;;;;;;;6.13;5.73;;;;;;;;;;5071140;28;20279;-47
2022/09/08 13:09:24;;;;;;;6.50;6.00;;;;;;;;;;5071071;28;20215;-47
2022/09/08 13:12:00;;;;;;;6.50;5.97;;;;;;;;;;5070818;28;20202;-46
2022/09/08 13:14:32;;;;;;;6.37;5.87;;;;;;;;;;5071796;28;20193;-47
2022/09/08 13:17:03;;;;;;;5.97;5.50;;;;;;;;;;5072483;28;20190;-47
2022/09/08 13:19:31;;;;;;;6.00;5.47;;;;;;;;;;5072236;28;20202;-47
2022/09/08 13:22:14;;;;;;;4.63;4.20;;;;;;;;;;5072579;28;20201;-47
2022/09/08 13:24:45;;;;;;;5.13;4.63;;;;;;;;;;5061642;28;20549;-45
2022/09/08 13:27:14;;;;;;;4.27;3.90;;;;;;;;;;5072109;28;20236;-44
2022/09/08 13:29:49;;;;;;;3.50;3.20;;;;;;;;;;5072268;28;20193;-44
2022/09/08 13:32:20;;;;;;;3.47;3.17;;;;;;;;;;5072314;28;20212;-45
2022/09/08 13:34:52;;;;;;;3.70;3.40;;;;;;;;;;5072502;28;20194;-45
2022/09/08 13:37:36;;;;;;;3.73;3.43;;;;;;;;;;5072229;28;20206;-45
2022/09/08 13:40:13;;;;;;;4.03;3.73;;;;;;;;;;5041254;28;20200;-44
2022/09/08 13:42:51;;;;;;;3.43;3.13;;;;;;;;;;5070407;28;20582;-44
2022/09/08 13:45:25;;;;;;;3.40;3.10;;;;;;;;;;5063799;28;20230;-46
2022/09/08 13:47:57;;;;;;;3.93;3.63;;;;;;;;;;5072046;28;20676;-47
2022/09/08 13:50:39;;;;;;;3.60;3.40;;;;;;;;;;5071461;28;20186;-46
2022/09/08 13:53:13;;;;;;;3.90;3.60;;;;;;;;;;5069474;28;20757;-45
2022/09/08 13:55:52;;;;;;;4.37;3.97;;;;;;;;;;5071919;28;20212;-45
2022/09/08 13:58:36;;;;;;;4.53;4.13;;;;;;;;;;5070634;28;20317;-46
2022/09/08 14:01:08;;;;;;;4.27;3.87;;;;;;;;;;5071599;28;20240;-45
2022/09/08 14:03:38;;;;;;;4.03;3.73;;;;;;;;;;5071814;28;20198;-47
2022/09/08 14:06:09;;;;;;;5.23;4.83;;;;;;;;;;5071691;28;20226;-46
2022/09/08 14:08:42;;;;;;;4.00;3.70;;;;;;;;;;5071976;28;20273;-46
2022/09/08 14:11:11;;;;;;;5.53;4.63;;;;;;;;;;5071879;28;20644;-46
2022/09/08 14:13:47;;;;;;;4.70;4.30;;;;;;;;;;5071759;28;20684;-49
2022/09/08 14:16:26;;;;;;;4.80;4.30;;;;;;;;;;5071302;28;20229;-46
2022/09/08 14:18:58;;;;;;;4.40;4.00;;;;;;;;;;5071548;28;20247;-47
2022/09/08 14:21:29;;;;;;;3.87;3.57;;;;;;;;;;5071559;28;20263;-46
2022/09/08 14:24:03;;;;;;;3.87;3.57;;;;;;;;;;5071701;28;20201;-46
2022/09/08 14:26:41;;;;;;;4.40;4.10;;;;;;;;;;5071715;28;20226;-46
2022/09/08 14:29:14;;;;;;;3.60;3.30;;;;;;;;;;5071723;28;20194;-46
2022/09/08 14:31:43;;;;;;;4.77;4.37;;;;;;;;;;5071744;28;20630;-46
2022/09/08 14:34:19;;;;;;;3.90;3.60;;;;;;;;;;5071401;28;20205;-46
2022/09/08 14:36:52;;;;;;;3.67;3.37;;;;;;;;;;5071701;28;20194;-47
2022/09/08 14:39:27;;;;;;;3.63;3.33;;;;;;;;;;5071433;28;20657;-47
2022/09/08 14:41:54;;;;;;;3.30;3.00;;;;;;;;;;5071163;28;20287;-47
2022/09/08 14:44:36;;;;;;;2.80;2.60;;;;;;;;;;5071530;28;20207;-47
2022/09/08 14:47:04;;;;;;;2.60;2.40;;;;;;;;;;5071122;28;20269;-47
2022/09/08 14:49:42;;;;;;;5.77;2.57;;;;;;;;;;5068888;28;20201;-47
2022/09/08 14:52:14;;;;;;;2.80;2.60;;;;;;;;;;5071235;28;20212;-48
2022/09/08 14:54:46;;;;;;;2.17;2.03;;;;;;;;;;5069190;28;20198;-47
2022/09/08 14:57:16;;;;;;;2.97;2.73;;;;;;;;;;5070313;28;20201;-48